Time;durP1;ratioP1;P1;durP2;ratioP2;P2;SDS_P1;SDS_P2;PMS_P1;PMS_P2;Temp;Humidity;BMP_temperature;BMP_pressure;BME280_temperature;BME280_humidity;BME280_pressure;Samples;Min_cycle;Max_cycle;Signal;HPM_P1;HPM_P2
2022/10/01 00:02:04;;;;;;;9.97;9.27;;;;;;;;;;5067163;28;24484;-45
2022/10/01 00:04:29;;;;;;;11.00;10.20;;;;;;;;;;5069050;28;24498;-45
2022/10/01 00:06:58;;;;;;;10.37;9.47;;;;;;;;;;5067422;28;24434;-45
2022/10/01 00:09:23;;;;;;;10.00;9.30;;;;;;;;;;5068527;28;24545;-45
2022/10/01 00:11:48;;;;;;;10.40;9.60;;;;;;;;;;5066848;28;24523;-46
2022/10/01 00:14:13;;;;;;;10.97;10.07;;;;;;;;;;5068084;28;24442;-45
2022/10/01 00:16:38;;;;;;;10.05;9.35;;;;;;;;;;5068812;28;24382;-45
2022/10/01 00:19:03;;;;;;;10.30;9.50;;;;;;;;;;5068480;28;24462;-45
2022/10/01 00:21:30;;;;;;;10.80;10.00;;;;;;;;;;5067242;28;24979;-46
2022/10/01 00:23:57;;;;;;;10.27;9.57;;;;;;;;;;5068027;28;24462;-45
2022/10/01 00:26:26;;;;;;;11.23;10.40;;;;;;;;;;5067008;28;24684;-46
2022/10/01 00:29:02;;;;;;;10.10;9.40;;;;;;;;;;5067823;28;24383;-45
2022/10/01 00:31:27;;;;;;;10.48;9.70;;;;;;;;;;5066833;28;24434;-46
2022/10/01 00:33:53;;;;;;;10.70;9.90;;;;;;;;;;5068156;28;24980;-46
2022/10/01 00:36:18;;;;;;;10.27;9.50;;;;;;;;;;5066719;28;24492;-46
2022/10/01 00:38:44;;;;;;;10.80;10.00;;;;;;;;;;5068056;28;24395;-46
2022/10/01 00:41:10;;;;;;;11.50;10.60;;;;;;;;;;5066605;28;24449;-47
2022/10/01 00:43:37;;;;;;;10.97;10.17;;;;;;;;;;5068371;28;24467;-47
2022/10/01 00:46:04;;;;;;;10.85;10.05;;;;;;;;;;5066633;28;24419;-45
2022/10/01 00:48:32;;;;;;;10.85;10.05;;;;;;;;;;5068082;28;24434;-46
2022/10/01 00:50:57;;;;;;;10.60;9.80;;;;;;;;;;5066669;28;25036;-46
2022/10/01 00:53:23;;;;;;;10.67;9.87;;;;;;;;;;5067213;28;24506;-48
2022/10/01 00:55:54;;;;;;;10.57;9.87;;;;;;;;;;5066592;28;24472;-46
2022/10/01 00:58:20;;;;;;;11.20;10.40;;;;;;;;;;5067535;28;24401;-46
2022/10/01 01:00:46;;;;;;;10.80;10.00;;;;;;;;;;5065589;28;24430;-47
2022/10/01 01:03:12;;;;;;;11.70;10.80;;;;;;;;;;5066865;28;24943;-47
2022/10/01 01:05:38;;;;;;;11.77;10.88;;;;;;;;;;5066439;28;25261;-47
2022/10/01 01:08:04;;;;;;;10.88;10.07;;;;;;;;;;5059791;28;24992;-47
2022/10/01 01:10:50;;;;;;;11.13;10.23;;;;;;;;;;5066225;28;24439;-47
2022/10/01 01:13:34;;;;;;;11.70;10.80;;;;;;;;;;5056793;28;24418;-46
2022/10/01 01:16:06;;;;;;;10.35;9.55;;;;;;;;;;5065584;28;24429;-46
2022/10/01 01:18:39;;;;;;;10.88;10.05;;;;;;;;;;5066465;28;24418;-47
2022/10/01 01:21:18;;;;;;;11.20;10.30;;;;;;;;;;5065874;28;24903;-47
2022/10/01 01:23:52;;;;;;;10.18;9.48;;;;;;;;;;5067185;28;24406;-47
2022/10/01 01:26:39;;;;;;;10.32;9.52;;;;;;;;;;5066913;28;24986;-46
2022/10/01 01:29:08;;;;;;;10.83;9.97;;;;;;;;;;5065643;28;24488;-47
2022/10/01 01:31:38;;;;;;;11.18;10.30;;;;;;;;;;5067146;28;24394;-46
2022/10/01 01:34:07;;;;;;;11.40;10.60;;;;;;;;;;5064914;28;24980;-46
2022/10/01 01:36:36;;;;;;;10.73;9.93;;;;;;;;;;5066966;28;24422;-47
2022/10/01 01:39:03;;;;;;;10.88;10.07;;;;;;;;;;5065274;28;25439;-47
2022/10/01 01:41:31;;;;;;;10.68;9.88;;;;;;;;;;5067247;28;24520;-47
2022/10/01 01:43:59;;;;;;;10.50;9.70;;;;;;;;;;5065574;28;25234;-47
2022/10/01 01:46:30;;;;;;;10.90;10.00;;;;;;;;;;5066604;28;25014;-46
2022/10/01 01:48:56;;;;;;;10.70;9.93;;;;;;;;;;5065219;28;24465;-47
2022/10/01 01:51:44;;;;;;;11.85;10.95;;;;;;;;;;5066900;28;24975;-46
2022/10/01 01:54:09;;;;;;;11.20;10.40;;;;;;;;;;5065213;28;24546;-47
2022/10/01 01:56:35;;;;;;;10.93;10.13;;;;;;;;;;5066836;28;24478;-47
2022/10/01 01:59:02;;;;;;;11.20;10.40;;;;;;;;;;5065424;28;24978;-46
2022/10/01 02:01:31;;;;;;;10.82;10.02;;;;;;;;;;5065876;28;24395;-46
2022/10/01 02:03:57;;;;;;;12.27;11.38;;;;;;;;;;5064224;28;24984;-47
2022/10/01 02:06:30;;;;;;;12.60;11.70;;;;;;;;;;5065665;28;24441;-47
2022/10/01 02:09:04;;;;;;;12.65;11.75;;;;;;;;;;5066685;28;24403;-46
2022/10/01 02:11:32;;;;;;;11.33;10.53;;;;;;;;;;5066823;28;24563;-46
2022/10/01 02:14:02;;;;;;;11.50;10.70;;;;;;;;;;5064991;28;24437;-47
2022/10/01 02:16:46;;;;;;;11.20;10.35;;;;;;;;;;5066672;28;24387;-46
2022/10/01 02:19:18;;;;;;;10.82;10.02;;;;;;;;;;5064936;28;24427;-47
2022/10/01 02:21:58;;;;;;;11.02;10.23;;;;;;;;;;5066594;28;24907;-48
2022/10/01 02:24:32;;;;;;;11.80;10.80;;;;;;;;;;5065372;28;24949;-47
2022/10/01 02:26:58;;;;;;;11.80;11.00;;;;;;;;;;5066519;28;24765;-48
2022/10/01 02:29:23;;;;;;;11.98;11.07;;;;;;;;;;5065197;28;24427;-47
2022/10/01 02:31:52;;;;;;;12.67;11.67;;;;;;;;;;5066415;28;24398;-47
2022/10/01 02:34:18;;;;;;;13.20;12.30;;;;;;;;;;5065263;28;24517;-45
2022/10/01 02:36:44;;;;;;;12.50;11.60;;;;;;;;;;5066437;28;24711;-46
2022/10/01 02:39:10;;;;;;;12.90;11.90;;;;;;;;;;5064540;28;24860;-47
2022/10/01 02:41:35;;;;;;;11.88;10.98;;;;;;;;;;5066263;28;24425;-46
2022/10/01 02:44:07;;;;;;;10.93;10.10;;;;;;;;;;5064914;28;24746;-48
2022/10/01 02:46:38;;;;;;;11.00;10.20;;;;;;;;;;5066410;28;24979;-45
2022/10/01 02:49:04;;;;;;;11.17;10.37;;;;;;;;;;5064279;28;24514;-46
2022/10/01 02:51:35;;;;;;;12.70;11.80;;;;;;;;;;5066132;28;24807;-45
2022/10/01 02:54:05;;;;;;;12.55;11.65;;;;;;;;;;5064965;28;24537;-45
2022/10/01 02:59:19;;;;;;;11.68;10.88;;;;;;;;;;5064311;28;24453;-46
2022/10/01 03:01:44;;;;;;;12.83;11.83;;;;;;;;;;5066132;28;24912;-47
2022/10/01 03:04:10;;;;;;;12.60;11.70;;;;;;;;;;5064911;28;24972;-46
2022/10/01 03:06:35;;;;;;;10.70;10.00;;;;;;;;;;5065972;28;24953;-47
2022/10/01 03:09:00;;;;;;;11.63;10.73;;;;;;;;;;5064660;28;24461;-48
2022/10/01 03:11:25;;;;;;;11.90;11.00;;;;;;;;;;5065850;28;24510;-45
2022/10/01 03:13:51;;;;;;;11.33;10.43;;;;;;;;;;5064702;28;25147;-47
2022/10/01 03:16:16;;;;;;;12.60;11.70;;;;;;;;;;5067281;28;24972;-48
2022/10/01 03:18:41;;;;;;;12.30;11.50;;;;;;;;;;5067731;28;25044;-45
2022/10/01 03:21:06;;;;;;;11.83;10.93;;;;;;;;;;5069156;28;24988;-46
2022/10/01 03:23:31;;;;;;;11.30;10.50;;;;;;;;;;5068672;28;24911;-46
2022/10/01 03:25:57;;;;;;;11.38;10.57;;;;;;;;;;5069365;28;24406;-46
2022/10/01 03:28:22;;;;;;;11.20;10.40;;;;;;;;;;5069239;28;24401;-45
2022/10/01 03:30:47;;;;;;;12.87;11.87;;;;;;;;;;5069383;28;25039;-45
2022/10/01 03:33:12;;;;;;;12.80;11.80;;;;;;;;;;5067170;28;24472;-46
2022/10/01 03:35:37;;;;;;;12.17;11.17;;;;;;;;;;5069098;28;24410;-47
2022/10/01 03:38:02;;;;;;;11.90;11.10;;;;;;;;;;5068069;28;24414;-46
2022/10/01 03:40:28;;;;;;;12.10;11.20;;;;;;;;;;5069081;28;24956;-46
2022/10/01 03:42:53;;;;;;;12.47;11.47;;;;;;;;;;5067747;28;24430;-45
2022/10/01 03:45:18;;;;;;;12.40;11.50;;;;;;;;;;5069348;28;24473;-46
2022/10/01 03:47:43;;;;;;;13.63;12.63;;;;;;;;;;5067967;28;24414;-45
2022/10/01 03:50:09;;;;;;;12.30;11.40;;;;;;;;;;5068951;28;24937;-46
2022/10/01 03:52:34;;;;;;;12.65;11.73;;;;;;;;;;5067432;28;24430;-46
2022/10/01 03:54:59;;;;;;;12.23;11.33;;;;;;;;;;5069218;28;24421;-45
2022/10/01 03:57:24;;;;;;;12.40;11.50;;;;;;;;;;5067490;28;24415;-45
2022/10/01 03:59:50;;;;;;;12.60;11.60;;;;;;;;;;5068769;28;24507;-45
2022/10/01 04:02:15;;;;;;;13.10;12.10;;;;;;;;;;5067210;28;24821;-45
2022/10/01 04:04:40;;;;;;;11.83;10.93;;;;;;;;;;5069228;28;24428;-46
2022/10/01 04:07:05;;;;;;;11.63;10.73;;;;;;;;;;5067191;28;25205;-46
2022/10/01 04:09:30;;;;;;;12.70;11.70;;;;;;;;;;5068672;28;24399;-46
2022/10/01 04:11:55;;;;;;;12.20;11.30;;;;;;;;;;5066447;28;24488;-45
2022/10/01 04:14:21;;;;;;;11.90;11.00;;;;;;;;;;5067531;28;24426;-46
2022/10/01 04:16:48;;;;;;;12.70;11.80;;;;;;;;;;5068430;28;24390;-45
2022/10/01 04:19:13;;;;;;;12.50;11.60;;;;;;;;;;5066529;28;24394;-45
2022/10/01 04:21:38;;;;;;;13.03;12.03;;;;;;;;;;5067629;28;24488;-46
2022/10/01 04:24:04;;;;;;;12.57;11.67;;;;;;;;;;5068311;28;24414;-46
2022/10/01 04:26:29;;;;;;;12.40;11.50;;;;;;;;;;5066786;28;24985;-46
2022/10/01 04:28:54;;;;;;;13.10;12.10;;;;;;;;;;5067873;28;24410;-47
2022/10/01 04:31:25;;;;;;;13.00;12.00;;;;;;;;;;5067178;28;24526;-46
2022/10/01 04:33:52;;;;;;;11.70;10.80;;;;;;;;;;5068272;28;24446;-47
2022/10/01 04:36:17;;;;;;;12.10;11.20;;;;;;;;;;5066679;28;24439;-46
2022/10/01 04:38:42;;;;;;;13.20;12.20;;;;;;;;;;5068636;28;24464;-46
2022/10/01 04:41:08;;;;;;;12.00;11.10;;;;;;;;;;5066583;28;24426;-46
2022/10/01 04:43:33;;;;;;;13.17;12.17;;;;;;;;;;5068114;28;24546;-46
2022/10/01 04:45:58;;;;;;;12.00;11.10;;;;;;;;;;5068313;28;24383;-47
2022/10/01 04:48:23;;;;;;;12.60;11.70;;;;;;;;;;5067758;28;25181;-47
2022/10/01 04:50:49;;;;;;;12.03;11.13;;;;;;;;;;5067822;28;24689;-46
2022/10/01 04:53:14;;;;;;;13.40;12.30;;;;;;;;;;5068137;28;24414;-46
2022/10/01 04:55:39;;;;;;;12.57;11.67;;;;;;;;;;5068029;28;24534;-46
2022/10/01 04:58:04;;;;;;;13.05;12.05;;;;;;;;;;5067726;28;24434;-46
2022/10/01 05:00:29;;;;;;;15.00;13.80;;;;;;;;;;5067378;28;24409;-46
2022/10/01 05:02:55;;;;;;;12.53;11.63;;;;;;;;;;5067690;28;24383;-47
2022/10/01 05:05:21;;;;;;;12.20;11.30;;;;;;;;;;5067814;28;24991;-46
2022/10/01 05:07:46;;;;;;;13.10;12.20;;;;;;;;;;5067530;28;24401;-46
2022/10/01 05:10:13;;;;;;;12.90;11.90;;;;;;;;;;5067376;28;25353;-46
2022/10/01 05:12:40;;;;;;;13.57;12.57;;;;;;;;;;5067488;28;24402;-46
2022/10/01 05:15:05;;;;;;;12.30;11.40;;;;;;;;;;5067372;28;24419;-47
2022/10/01 05:17:34;;;;;;;12.80;11.80;;;;;;;;;;5067653;28;24936;-47
2022/10/01 05:20:00;;;;;;;11.95;11.05;;;;;;;;;;5066854;28;24394;-46
2022/10/01 05:22:25;;;;;;;12.25;11.35;;;;;;;;;;5066890;28;24580;-46
2022/10/01 05:24:50;;;;;;;11.77;10.87;;;;;;;;;;5065958;28;24418;-46
2022/10/01 05:27:16;;;;;;;12.50;11.50;;;;;;;;;;5067259;28;24460;-47
2022/10/01 05:29:41;;;;;;;13.23;12.03;;;;;;;;;;5067427;28;24967;-46
2022/10/01 05:32:11;;;;;;;11.73;10.83;;;;;;;;;;5066830;28;25158;-46
2022/10/01 05:34:36;;;;;;;13.57;12.50;;;;;;;;;;5066782;28;24427;-47
2022/10/01 05:37:02;;;;;;;12.55;11.57;;;;;;;;;;5067163;28;24417;-48
2022/10/01 05:39:30;;;;;;;12.60;11.60;;;;;;;;;;5066681;28;24389;-47
2022/10/01 05:41:58;;;;;;;11.98;11.07;;;;;;;;;;5067163;28;24406;-46
2022/10/01 05:44:24;;;;;;;11.55;10.68;;;;;;;;;;5066847;28;24824;-47
2022/10/01 05:46:49;;;;;;;12.30;11.40;;;;;;;;;;5067175;28;24395;-47
2022/10/01 05:49:16;;;;;;;13.00;11.90;;;;;;;;;;5066836;28;24401;-47
2022/10/01 05:51:41;;;;;;;12.05;11.25;;;;;;;;;;5067022;28;24476;-47
2022/10/01 05:54:07;;;;;;;12.20;11.20;;;;;;;;;;5066324;28;24800;-46
2022/10/01 05:56:32;;;;;;;12.25;11.35;;;;;;;;;;5067083;28;24395;-46
2022/10/01 05:58:58;;;;;;;12.00;11.10;;;;;;;;;;5066847;28;25194;-46
2022/10/01 06:01:23;;;;;;;13.70;12.60;;;;;;;;;;5066714;28;24394;-47
2022/10/01 06:03:51;;;;;;;13.10;12.10;;;;;;;;;;5066640;28;24383;-47
2022/10/01 06:06:21;;;;;;;13.75;12.70;;;;;;;;;;5066866;28;24471;-46
2022/10/01 06:08:46;;;;;;;12.55;11.65;;;;;;;;;;5066692;28;24383;-46
2022/10/01 06:11:11;;;;;;;11.60;10.70;;;;;;;;;;5066498;28;24461;-46
2022/10/01 06:13:36;;;;;;;14.70;13.50;;;;;;;;;;5066468;28;24398;-46
2022/10/01 06:16:01;;;;;;;12.43;11.50;;;;;;;;;;5067047;28;24774;-46
2022/10/01 06:18:26;;;;;;;12.63;11.73;;;;;;;;;;5066567;28;24900;-47
2022/10/01 06:20:52;;;;;;;12.45;11.52;;;;;;;;;;5064228;28;24482;-47
2022/10/01 06:23:17;;;;;;;12.10;11.20;;;;;;;;;;5066297;28;24960;-47
2022/10/01 06:25:42;;;;;;;14.30;13.10;;;;;;;;;;5066575;28;24744;-46
2022/10/01 06:28:08;;;;;;;12.23;11.33;;;;;;;;;;5066464;28;24398;-47
2022/10/01 06:30:35;;;;;;;12.98;11.98;;;;;;;;;;5066292;28;24406;-47
2022/10/01 06:33:05;;;;;;;11.50;10.70;;;;;;;;;;5066593;28;24403;-47
2022/10/01 06:35:31;;;;;;;11.00;10.10;;;;;;;;;;5066214;28;24435;-46
2022/10/01 06:37:56;;;;;;;11.52;10.60;;;;;;;;;;5066604;28;24440;-46
2022/10/01 06:40:22;;;;;;;10.97;10.17;;;;;;;;;;5063385;28;24514;-46
2022/10/01 06:42:50;;;;;;;12.47;11.57;;;;;;;;;;5064832;28;24610;-47
2022/10/01 06:45:18;;;;;;;11.55;10.75;;;;;;;;;;5066257;28;24508;-47
2022/10/01 06:47:44;;;;;;;10.70;9.90;;;;;;;;;;5066578;28;24402;-46
2022/10/01 06:50:09;;;;;;;10.48;9.68;;;;;;;;;;5066680;28;24390;-47
2022/10/01 06:52:50;;;;;;;10.90;10.00;;;;;;;;;;5069754;28;24407;-47
2022/10/01 06:55:16;;;;;;;11.37;10.47;;;;;;;;;;5070108;28;24510;-47
2022/10/01 06:57:41;;;;;;;11.50;10.60;;;;;;;;;;5070298;28;24395;-47
2022/10/01 07:00:07;;;;;;;10.60;9.80;;;;;;;;;;5070006;28;24765;-48
2022/10/01 07:02:32;;;;;;;12.18;11.25;;;;;;;;;;5069684;28;25051;-46
2022/10/01 07:05:00;;;;;;;11.10;10.20;;;;;;;;;;5069913;28;24409;-46
2022/10/01 07:07:29;;;;;;;10.45;9.65;;;;;;;;;;5070041;28;24624;-47
2022/10/01 07:09:55;;;;;;;9.57;8.88;;;;;;;;;;5069827;28;24390;-46
2022/10/01 07:12:20;;;;;;;11.17;10.27;;;;;;;;;;5069073;28;24975;-47
2022/10/01 07:14:45;;;;;;;10.03;9.23;;;;;;;;;;5069937;28;25077;-47
2022/10/01 07:17:10;;;;;;;10.67;9.77;;;;;;;;;;5069599;28;25008;-47
2022/10/01 07:19:36;;;;;;;11.40;10.50;;;;;;;;;;5069524;28;24486;-46
2022/10/01 07:22:01;;;;;;;11.25;10.25;;;;;;;;;;5069429;28;25144;-47
2022/10/01 07:24:26;;;;;;;10.80;10.00;;;;;;;;;;5069199;28;24696;-48
2022/10/01 07:26:54;;;;;;;10.50;9.70;;;;;;;;;;5069269;28;24390;-46
2022/10/01 07:29:19;;;;;;;10.55;9.75;;;;;;;;;;5069461;28;24532;-46
2022/10/01 07:31:44;;;;;;;9.30;8.60;;;;;;;;;;5069028;28;24429;-48
2022/10/01 07:34:10;;;;;;;10.20;9.40;;;;;;;;;;5069165;28;25045;-46
2022/10/01 07:36:35;;;;;;;9.50;8.80;;;;;;;;;;5068863;28;24484;-47
2022/10/01 07:39:00;;;;;;;10.17;9.37;;;;;;;;;;5069525;28;24976;-46
2022/10/01 07:41:26;;;;;;;10.75;9.95;;;;;;;;;;5069087;28;24444;-47
2022/10/01 07:43:51;;;;;;;9.70;9.00;;;;;;;;;;5069379;28;24498;-47
2022/10/01 07:46:16;;;;;;;10.10;9.20;;;;;;;;;;5069260;28;24545;-47
2022/10/01 07:48:42;;;;;;;9.30;8.60;;;;;;;;;;5068975;28;24398;-47
2022/10/01 07:51:07;;;;;;;8.85;8.15;;;;;;;;;;5068687;28;24399;-47
2022/10/01 07:53:32;;;;;;;8.50;7.80;;;;;;;;;;5068774;28;24410;-48
2022/10/01 07:56:01;;;;;;;9.70;8.90;;;;;;;;;;5069100;28;24441;-47
2022/10/01 07:58:26;;;;;;;10.13;9.27;;;;;;;;;;5068982;28;24478;-47
2022/10/01 08:00:56;;;;;;;9.83;9.03;;;;;;;;;;5068520;28;24478;-47
2022/10/01 08:03:22;;;;;;;9.90;9.10;;;;;;;;;;5067443;28;24387;-47
2022/10/01 08:05:48;;;;;;;8.87;8.20;;;;;;;;;;5068768;28;24456;-47
2022/10/01 08:08:13;;;;;;;7.95;7.35;;;;;;;;;;5068646;28;24498;-47
2022/10/01 08:10:38;;;;;;;10.27;9.47;;;;;;;;;;5068780;28;24487;-48
2022/10/01 08:13:07;;;;;;;8.93;8.23;;;;;;;;;;5068831;28;24395;-47
2022/10/01 08:15:32;;;;;;;8.27;7.65;;;;;;;;;;5068337;28;24465;-46
2022/10/01 08:17:59;;;;;;;8.60;7.90;;;;;;;;;;5068471;28;24441;-46
2022/10/01 08:20:24;;;;;;;8.68;7.97;;;;;;;;;;5068435;28;24403;-47
2022/10/01 08:22:50;;;;;;;7.43;6.93;;;;;;;;;;5067936;28;24888;-47
2022/10/01 08:25:15;;;;;;;7.30;6.80;;;;;;;;;;5068324;28;24386;-46
2022/10/01 08:27:40;;;;;;;7.20;6.70;;;;;;;;;;5068745;28;24448;-46
2022/10/01 08:30:06;;;;;;;6.57;6.07;;;;;;;;;;5068669;28;24522;-47
2022/10/01 08:32:31;;;;;;;8.40;7.70;;;;;;;;;;5067773;28;24433;-47
2022/10/01 08:34:58;;;;;;;7.03;6.53;;;;;;;;;;5068198;28;24415;-47
2022/10/01 08:37:25;;;;;;;7.32;6.82;;;;;;;;;;5068295;28;24390;-47
2022/10/01 08:39:51;;;;;;;7.57;6.97;;;;;;;;;;5068128;28;24409;-47
2022/10/01 08:42:34;;;;;;;7.00;6.50;;;;;;;;;;5065567;28;24419;-47
2022/10/01 08:45:03;;;;;;;8.57;7.88;;;;;;;;;;5067679;28;24544;-46
2022/10/01 08:47:32;;;;;;;9.07;8.38;;;;;;;;;;5067539;28;24730;-47
2022/10/01 08:50:01;;;;;;;9.00;8.30;;;;;;;;;;5067696;28;25199;-47
2022/10/01 08:52:31;;;;;;;8.20;7.60;;;;;;;;;;5067700;28;24675;-47
2022/10/01 08:55:02;;;;;;;8.27;7.68;;;;;;;;;;5067739;28;24430;-45
2022/10/01 08:57:33;;;;;;;8.43;7.72;;;;;;;;;;5067476;28;25054;-47
2022/10/01 09:00:04;;;;;;;7.53;7.03;;;;;;;;;;5067884;28;24403;-48
2022/10/01 09:02:34;;;;;;;8.10;7.40;;;;;;;;;;5066897;28;24375;-47
2022/10/01 09:05:01;;;;;;;7.85;7.25;;;;;;;;;;5067863;28;24397;-48
2022/10/01 09:07:45;;;;;;;8.13;7.53;;;;;;;;;;5067682;28;24393;-48
2022/10/01 09:10:29;;;;;;;8.27;7.67;;;;;;;;;;5067428;28;24489;-47
2022/10/01 09:13:12;;;;;;;8.20;7.60;;;;;;;;;;5066688;28;25066;-48
2022/10/01 09:15:43;;;;;;;8.38;7.68;;;;;;;;;;5067547;28;24538;-47
2022/10/01 09:18:08;;;;;;;7.60;7.00;;;;;;;;;;5067405;28;24402;-48
2022/10/01 09:20:37;;;;;;;9.38;8.68;;;;;;;;;;5066953;28;24410;-48
2022/10/01 09:23:16;;;;;;;7.90;7.40;;;;;;;;;;5067345;28;24394;-46
2022/10/01 09:25:42;;;;;;;9.13;8.40;;;;;;;;;;5067344;28;24409;-47
2022/10/01 09:28:13;;;;;;;9.20;8.50;;;;;;;;;;5067430;28;24433;-48
2022/10/01 09:30:41;;;;;;;9.50;8.80;;;;;;;;;;5067119;28;24388;-47
2022/10/01 09:33:17;;;;;;;7.43;6.93;;;;;;;;;;5067193;28;24403;-47
2022/10/01 09:35:53;;;;;;;8.40;7.70;;;;;;;;;;5066996;28;24438;-46
2022/10/01 09:38:21;;;;;;;7.70;7.10;;;;;;;;;;5067402;28;24490;-46
2022/10/01 09:40:51;;;;;;;7.70;7.20;;;;;;;;;;5067296;28;24390;-47
2022/10/01 09:43:20;;;;;;;6.70;6.30;;;;;;;;;;5066696;28;24432;-47
2022/10/01 09:45:46;;;;;;;7.90;7.30;;;;;;;;;;5067183;28;24761;-48
2022/10/01 09:48:18;;;;;;;8.30;7.70;;;;;;;;;;5066997;28;25136;-48
2022/10/01 09:50:54;;;;;;;6.80;6.30;;;;;;;;;;5067064;28;24394;-47
2022/10/01 09:53:21;;;;;;;7.10;6.60;;;;;;;;;;5067151;28;24482;-46
2022/10/01 09:55:51;;;;;;;6.18;5.78;;;;;;;;;;5066817;28;24431;-47
2022/10/01 09:58:17;;;;;;;7.28;6.78;;;;;;;;;;5066975;28;24952;-47
2022/10/01 10:00:42;;;;;;;6.50;6.10;;;;;;;;;;5066909;28;24532;-47
2022/10/01 10:03:08;;;;;;;7.72;7.18;;;;;;;;;;5066096;28;24462;-46
2022/10/01 10:05:41;;;;;;;7.00;5.70;;;;;;;;;;5066596;28;24449;-47
2022/10/01 10:08:24;;;;;;;6.10;5.60;;;;;;;;;;5066908;28;24757;-48
2022/10/01 10:11:05;;;;;;;6.50;6.00;;;;;;;;;;5066518;28;24437;-48
2022/10/01 10:13:38;;;;;;;6.20;5.80;;;;;;;;;;5066464;28;24387;-48
2022/10/01 10:16:29;;;;;;;6.00;5.60;;;;;;;;;;5066999;28;24387;-48
2022/10/01 10:19:03;;;;;;;6.47;5.97;;;;;;;;;;5063354;28;24415;-47
2022/10/01 10:21:29;;;;;;;6.30;5.80;;;;;;;;;;5065796;28;24456;-47
2022/10/01 10:23:59;;;;;;;5.43;5.03;;;;;;;;;;5066475;28;24391;-47
2022/10/01 10:26:31;;;;;;;4.40;4.10;;;;;;;;;;5069317;28;24799;-47
2022/10/01 10:28:57;;;;;;;3.37;3.07;;;;;;;;;;5070627;28;24444;-47
2022/10/01 10:31:24;;;;;;;2.97;2.78;;;;;;;;;;5070963;28;24796;-47
2022/10/01 10:33:51;;;;;;;2.90;2.70;;;;;;;;;;5070139;28;24449;-47
2022/10/01 10:36:18;;;;;;;4.10;3.80;;;;;;;;;;5070542;28;24411;-47
2022/10/01 10:38:45;;;;;;;3.75;3.55;;;;;;;;;;5070614;28;24379;-47
2022/10/01 10:41:15;;;;;;;2.90;2.80;;;;;;;;;;5069000;28;24434;-47
2022/10/01 10:43:42;;;;;;;3.80;3.50;;;;;;;;;;5069585;28;24433;-47
2022/10/01 10:46:08;;;;;;;3.50;3.30;;;;;;;;;;5070195;28;24494;-48
2022/10/01 10:48:42;;;;;;;4.10;3.80;;;;;;;;;;5070061;28;24386;-47
2022/10/01 10:51:09;;;;;;;3.30;3.10;;;;;;;;;;5070308;28;24636;-47
2022/10/01 10:53:42;;;;;;;3.70;3.00;;;;;;;;;;5069666;28;24394;-47
2022/10/01 10:56:13;;;;;;;3.30;3.00;;;;;;;;;;5070499;28;24398;-47
2022/10/01 10:58:41;;;;;;;3.20;3.00;;;;;;;;;;5070187;28;24406;-48
2022/10/01 11:01:10;;;;;;;3.50;3.30;;;;;;;;;;5070422;28;24754;-47
2022/10/01 11:03:37;;;;;;;3.30;3.10;;;;;;;;;;5069720;28;24395;-46
2022/10/01 11:06:10;;;;;;;3.10;2.90;;;;;;;;;;5070536;28;24394;-48
2022/10/01 11:08:35;;;;;;;3.97;3.67;;;;;;;;;;5069876;28;24409;-47
2022/10/01 11:11:11;;;;;;;3.90;3.60;;;;;;;;;;5070030;28;24391;-45
2022/10/01 11:13:48;;;;;;;4.88;3.88;;;;;;;;;;5069618;28;24452;-46
2022/10/01 11:16:29;;;;;;;3.90;3.60;;;;;;;;;;5069894;28;24391;-47
2022/10/01 11:19:13;;;;;;;4.05;3.75;;;;;;;;;;5069327;28;24387;-46
2022/10/01 11:21:50;;;;;;;4.68;4.38;;;;;;;;;;5069575;28;24423;-47
2022/10/01 11:24:18;;;;;;;4.30;4.00;;;;;;;;;;5069605;28;24391;-46
2022/10/01 11:26:51;;;;;;;4.10;3.80;;;;;;;;;;5069830;28;24395;-46
2022/10/01 11:29:42;;;;;;;3.90;3.60;;;;;;;;;;5069442;28;24444;-46
2022/10/01 11:32:18;;;;;;;4.30;4.00;;;;;;;;;;5068847;28;24452;-47
2022/10/01 11:34:43;;;;;;;3.70;3.50;;;;;;;;;;5068108;28;24437;-47
2022/10/01 11:37:27;;;;;;;4.67;4.37;;;;;;;;;;5069274;28;24971;-47
2022/10/01 11:39:54;;;;;;;4.30;4.00;;;;;;;;;;5069111;28;24905;-46
2022/10/01 11:42:24;;;;;;;5.03;4.63;;;;;;;;;;5069330;28;24498;-47
2022/10/01 11:44:49;;;;;;;4.50;4.10;;;;;;;;;;5069096;28;24402;-46
2022/10/01 11:47:19;;;;;;;4.75;4.35;;;;;;;;;;5069399;28;24796;-48
2022/10/01 11:49:50;;;;;;;5.00;4.50;;;;;;;;;;5067791;28;24510;-47
2022/10/01 11:52:34;;;;;;;4.65;4.35;;;;;;;;;;5069040;28;24391;-47
2022/10/01 12:00:53;;;;;;;4.82;4.53;;;;;;;;;;5068719;28;24393;-46
2022/10/01 12:03:20;;;;;;;4.30;4.00;;;;;;;;;;5068851;28;24532;-45
2022/10/01 12:05:46;;;;;;;4.40;4.10;;;;;;;;;;5068812;28;24959;-45
2022/10/01 12:08:23;;;;;;;3.80;3.50;;;;;;;;;;5068960;28;24417;-46
2022/10/01 12:11:08;;;;;;;4.03;3.72;;;;;;;;;;5068188;28;24504;-46
2022/10/01 12:13:37;;;;;;;4.72;4.32;;;;;;;;;;5067658;28;24411;-46
2022/10/01 12:16:20;;;;;;;4.13;3.80;;;;;;;;;;5068715;28;24399;-47
2022/10/01 12:18:45;;;;;;;3.85;3.55;;;;;;;;;;5068408;28;24406;-48
2022/10/01 12:21:31;;;;;;;3.10;2.90;;;;;;;;;;5068642;28;24395;-48
2022/10/01 12:23:59;;;;;;;2.70;2.50;;;;;;;;;;5063842;28;24569;-47
2022/10/01 12:26:36;;;;;;;2.90;2.70;;;;;;;;;;5068466;28;24926;-47
2022/10/01 12:29:05;;;;;;;2.80;2.60;;;;;;;;;;5068580;28;24406;-48
2022/10/01 12:31:33;;;;;;;2.40;2.30;;;;;;;;;;5068129;28;24390;-47
2022/10/01 12:34:02;;;;;;;2.30;2.10;;;;;;;;;;5067868;28;24972;-47
2022/10/01 12:36:40;;;;;;;2.25;2.05;;;;;;;;;;5068009;28;24443;-48
2022/10/01 12:39:14;;;;;;;1.90;1.80;;;;;;;;;;5068119;28;24387;-47
2022/10/01 12:41:52;;;;;;;2.10;2.00;;;;;;;;;;5066065;28;24808;-47
2022/10/01 12:44:25;;;;;;;2.30;2.10;;;;;;;;;;5065304;28;24398;-48
2022/10/01 12:47:02;;;;;;;2.40;2.15;;;;;;;;;;5066390;28;24425;-47
2022/10/01 12:49:27;;;;;;;2.35;2.17;;;;;;;;;;5066815;28;24399;-48
2022/10/01 12:52:03;;;;;;;2.30;2.20;;;;;;;;;;5067545;28;24413;-48
2022/10/01 12:54:49;;;;;;;2.40;2.20;;;;;;;;;;5047955;28;24434;-48
2022/10/01 12:57:27;;;;;;;2.92;2.72;;;;;;;;;;5047609;28;24387;-47
2022/10/01 12:59:52;;;;;;;3.40;3.20;;;;;;;;;;5047451;28;25027;-47
2022/10/01 13:02:18;;;;;;;4.00;3.70;;;;;;;;;;5047626;28;24380;-48
2022/10/01 13:04:43;;;;;;;3.70;3.40;;;;;;;;;;5045854;28;24403;-48
2022/10/01 13:07:15;;;;;;;4.10;3.80;;;;;;;;;;5047863;28;24922;-47
2022/10/01 13:09:49;;;;;;;4.13;3.85;;;;;;;;;;5047277;28;24407;-47
2022/10/01 13:12:14;;;;;;;3.90;3.60;;;;;;;;;;5047035;28;24407;-48
2022/10/01 13:14:43;;;;;;;4.00;3.70;;;;;;;;;;5047359;28;24423;-47
2022/10/01 13:17:17;;;;;;;4.60;4.30;;;;;;;;;;5047493;28;24392;-48
2022/10/01 13:19:50;;;;;;;4.60;4.30;;;;;;;;;;5047435;28;25212;-47
2022/10/01 13:22:32;;;;;;;5.07;4.78;;;;;;;;;;5047070;28;24388;-47
2022/10/01 13:25:24;;;;;;;5.90;5.40;;;;;;;;;;5047388;28;24411;-48
2022/10/01 13:27:57;;;;;;;5.75;5.25;;;;;;;;;;5044222;28;24407;-48
2022/10/01 13:30:24;;;;;;;4.57;4.28;;;;;;;;;;5047309;28;24453;-48
2022/10/01 13:32:50;;;;;;;5.38;4.97;;;;;;;;;;5054381;28;24406;-48
2022/10/01 13:35:31;;;;;;;5.40;5.00;;;;;;;;;;5066611;28;25042;-47
2022/10/01 13:37:56;;;;;;;5.10;4.70;;;;;;;;;;5067114;28;24756;-46
2022/10/01 13:40:33;;;;;;;5.60;5.20;;;;;;;;;;5067259;28;24913;-47
2022/10/01 13:43:00;;;;;;;5.57;5.18;;;;;;;;;;5066268;28;24418;-47
2022/10/01 13:45:30;;;;;;;6.38;5.88;;;;;;;;;;5067116;28;24497;-48
2022/10/01 13:48:07;;;;;;;5.30;4.90;;;;;;;;;;5066999;28;24729;-47
2022/10/01 13:50:32;;;;;;;5.10;4.80;;;;;;;;;;5067276;28;24460;-48
2022/10/01 13:53:16;;;;;;;5.50;5.10;;;;;;;;;;5064451;28;24972;-47
2022/10/01 13:55:43;;;;;;;5.10;4.70;;;;;;;;;;5066655;28;24968;-47
2022/10/01 13:58:41;;;;;;;4.78;4.47;;;;;;;;;;5066967;28;24390;-48
2022/10/01 14:01:12;;;;;;;4.28;3.97;;;;;;;;;;5022155;28;24480;-48
2022/10/01 14:03:41;;;;;;;4.40;4.10;;;;;;;;;;5066298;28;24391;-46
2022/10/01 14:06:13;;;;;;;4.57;4.28;;;;;;;;;;5066632;28;24478;-47
2022/10/01 14:09:01;;;;;;;4.60;4.30;;;;;;;;;;5066739;28;24498;-47
2022/10/01 14:17:02;;;;;;;4.95;4.55;;;;;;;;;;5066623;28;24428;-47
2022/10/01 14:19:27;;;;;;;4.63;4.33;;;;;;;;;;5066797;28;24494;-48
2022/10/01 14:22:11;;;;;;;5.20;4.90;;;;;;;;;;5066885;28;24390;-47
2022/10/01 14:24:39;;;;;;;4.13;3.83;;;;;;;;;;5066263;28;24489;-47
2022/10/01 14:27:11;;;;;;;6.00;5.50;;;;;;;;;;5066557;28;24502;-47
2022/10/01 14:29:44;;;;;;;5.00;4.60;;;;;;;;;;5066687;28;24479;-48
2022/10/01 14:32:28;;;;;;;4.88;4.47;;;;;;;;;;5066383;28;24789;-47
2022/10/01 14:35:01;;;;;;;4.35;4.05;;;;;;;;;;5065934;28;24468;-47
2022/10/01 14:37:27;;;;;;;3.20;3.00;;;;;;;;;;5066603;28;24391;-47
2022/10/01 14:40:08;;;;;;;3.78;3.47;;;;;;;;;;5066228;28;24793;-47
2022/10/01 14:42:33;;;;;;;3.13;2.92;;;;;;;;;;5065869;28;24403;-48
2022/10/01 14:44:58;;;;;;;3.47;3.27;;;;;;;;;;5064402;28;24394;-48
2022/10/01 14:47:24;;;;;;;2.43;2.23;;;;;;;;;;5064600;28;24919;-47
2022/10/01 14:49:50;;;;;;;1.80;1.70;;;;;;;;;;5065344;28;24401;-48
2022/10/01 14:52:21;;;;;;;2.10;1.90;;;;;;;;;;5064507;28;24521;-47
2022/10/01 14:54:50;;;;;;;1.40;1.30;;;;;;;;;;5066169;28;24492;-47
2022/10/01 14:57:19;;;;;;;1.30;1.20;;;;;;;;;;5064379;28;24418;-47